Aérodrome :
LOGIN :

S'inscrire | Disclaimer

   EN    FR    IT 

 










Légende :    VFR   VFR Marginal   IFR   IFR Intensif   IFR Très Intensif
Visi : 
Plafond : 
>= 8 km
>= 3000ft
5 à 8 km
1000 à 3000 ft
1500m à 5 km
500 à 1000 ft
800 à 1500m
200 à 500 ft
< 800m
< 200 ft
Symboles :   Orages  Brouillard  Fortes neiges  Fortes précipitations  Vent > 20 kt
SIGMETs :   Divers  Orages  Givrage  Turbulence  Onde Orograph.  Cendres Volcan.







- Altitude de l'aérodrome : 163 ft
- Code IATA : DGX


EGDX - St Athan

DERNIER METAR :
  • 221450Z 28014KT 9999 FEW045 17/12 Q1014 BLU

METARs EXPIRÉS :
  • 221350Z 27012KT 9999 FEW045 18/13 Q1014 BLU
  • 221250Z 15007KT 9999 FEW045 21/13 Q1014 BLU

TAF TAF EGDX
Valide du 22 à 15h jusqu'au 22 à 18h UTC


221322Z 2215/2218 27014KT CAVOK
PROB40
TEMPO 2215/2218 28015G25KT
PROB30
TEMPO 2217/2218 SCT012
Pas de NOTAMs connus pour ce terrain.



MET'MAP, la Météo Aéronautique d'un coup d'oeil ! - Copyright ORBIFLY Décembre 2007 - Disclaimer

ORBIFLY MET'MAP TEAM :

Programmation & Développement : Alexandra Zaïnal
Conception & Développement : Baudouin d'Aumeries
Co-Programmation & Développement : Marc-Olivier Méhu
Soutien technique & logistique : Manuel Goepfert

Contact : metmap@orbifly.com




SOURCES & CREDITS :

   NOAA